메인 페이지
METAR-TAF:

METAR-TAF

공항 :

무안국제공항

광주광역, 대한민국

위도: 34-59-29N, 경도: 126-22-58E, 고도: 16m

현재 날씨관측

예보는 18분 전, 15:00시(UTC)에 발표되었습니다.
남남동4kt
온도 29°C
습도 79%
기압 1007 hPa
시정 10km 이상

METAR: RKJB 151500Z AUTO 16004KT 9999 NCD 29/25 Q1007

시각: 00:18 (15:18 UTC)

예보

예보는 4 시간 18분 전, 11:00시(UTC)에 발표되었습니다.
예보 대상 시간: 15일 12시부터 16일 18시까지 (UTC)
서남서6kt
시정 10km 이상
고도 3000ft 상공 구름 보통
전환 중
15일 14시부터 15일 15시까지 (UTC)
6kt
전환 중
15일 23시부터 15일 24시까지 (UTC)
남동10kt
일시적
16일 01시부터 16일 04시까지 (UTC)
10kt
시정: 4200m
약한소나기
전환 중
16일 11시부터 16일 12시까지 (UTC)
10kt

TAF: RKJB 151100Z 1512/1618 25006KT 9999 SCT030 TN26/1520Z TX33/1605Z BECMG 1514/1515 08006KT BECMG 1523/1524 14010KT TEMPO 1601/1604 10010KT 4200 -SHRA BECMG 1611/1612 08010KT

4,000개 이상의 공항 관측 자료 및 예보 (METAR 및 TAF 보고).

지도상에서 검색 가능한 기상관측소가 노란 점과 빨간 점으로 표시되어 있습니다.

기상관측소 명을 보려면 표시 위로 마우스를 이동하세요.

날씨 관측과 예보를 보려면 클릭하세요.

지도 변경 : 확대하려면 엑스 표시가 있는 녹색 버튼, 축소하려면 빼기 표시가 있는 녹색 버튼, 다음 페이지의 지도를 보려면 녹색 화살표를 클릭하세요.


METAR-TAF: